Latest Weather Observations for Rottnest Island

IDW60901

Issued at 7:31 pm WST Thursday 25 August 2016 (issued every 10 minutes, with the page automatically refreshed every 10 minutes)

About weather observations | Map of Perth area stations | Latest observations for Perth area | Other Formats
Station Details ID: 009193 Name: ROTTNEST ISLAND Lat: -32.01 Lon: 115.50 Height: 43.1 m
Data from the previous 72 hours. | See also: Recent months at Rottnest Island
Date/Time
WST
Temp
°C
App
Temp
°C
Dew
Point
°C
Rel
Hum
%
Delta-T
°C
Wind Press
QNH
hPa
Press
MSL
hPa
Rain since
9am
mm
Dir  Spd
km/h
Gust
km/h
Spd
kts
Gust
kts
25/07:30pm 16.1 11.6 6.8 54 4.6 ENE 20 32 11 17 1018.3 1018.3 0.0
25/07:00pm 16.1 11.6 7.1 55 4.5 ENE 20 28 11 15 1018.2 1018.2 0.0
25/06:30pm 16.2 11.3 6.9 54 4.6 ENE 22 30 12 16 1017.9 1017.9 0.0
25/06:00pm 16.4 12.0 7.3 55 4.5 ENE 20 28 11 15 1018.2 1018.2 0.0
25/05:30pm 16.6 11.8 7.5 55 4.6 ENE 22 30 12 16 1018.1 1018.1 0.0
25/05:00pm 16.9 11.4 6.1 49 5.3 NE 24 32 13 17 1017.9 1017.9 0.0
25/04:30pm 16.9 12.5 7.3 53 4.8 ENE 20 28 11 15 1018.1 1018.1 0.0
25/04:00pm 17.2 12.6 6.7 50 5.2 NE 20 30 11 16 1018.9 1018.9 0.0
25/03:30pm 17.5 12.2 6.7 49 5.4 ENE 24 32 13 17 1018.8 1018.8 0.0
25/03:00pm 17.4 12.4 6.3 48 5.4 NE 22 28 12 15 1019.1 1019.1 0.0
25/02:30pm 17.7 13.0 5.9 46 5.8 NE 20 28 11 15 1019.5 1019.5 0.0
25/02:00pm 17.2 12.4 5.8 47 5.5 ENE 20 30 11 16 1020.1 1020.1 0.0
25/01:30pm 16.5 11.4 5.8 49 5.2 ENE 22 28 12 15 1020.7 1020.7 0.0
25/01:00pm 16.5 11.1 6.3 51 5.0 NE 24 35 13 19 1021.2 1021.2 0.0
25/12:30pm 16.0 10.1 5.9 51 4.9 ENE 26 35 14 19 1021.7 1021.7 0.0
25/12:00pm 15.7 9.9 6.4 54 4.5 ENE 26 37 14 20 1022.3 1022.3 0.0
25/11:30am 14.9 8.7 6.2 56 4.2 ENE 28 39 15 21 1023.0 1023.0 0.0
25/11:00am 14.2 7.2 6.1 58 3.9 ENE 32 41 17 22 1023.3 1023.3 0.0
25/10:30am 13.7 6.7 6.1 60 3.6 NE 32 43 17 23 1023.9 1023.9 0.0
25/10:00am 13.9 7.1 6.7 62 3.5 NE 32 44 17 24 1024.0 1024.0 0.0
25/09:30am 12.7 5.8 6.3 65 3.0 NE 32 46 17 25 1024.2 1024.2 0.0
25/09:00am 12.1 5.1 6.2 67 2.8 NE 32 46 17 25 1024.3 1024.3 0.0
25/08:30am 11.6 4.4 6.1 69 2.6 NE 33 50 18 27 1024.4 1024.4 0.0
25/08:15am 11.3 4.1 6.0 70 2.5 NE 33 52 18 28 1024.3 1024.3 0.0
25/08:00am 11.1 3.5 5.8 70 2.4 ENE 35 48 19 26 1024.3 1024.3 0.0
25/07:30am 10.7 3.1 5.7 71 2.3 ENE 35 46 19 25 1024.2 1024.2 0.0
25/07:00am 10.5 2.8 5.5 71 2.3 ENE 35 48 19 26 1023.9 1023.9 0.0
25/06:30am 10.2 3.5 5.4 72 2.2 ENE 30 43 16 23 1023.6 1023.6 0.0
25/06:00am 10.2 2.4 5.0 70 2.3 ENE 35 48 19 26 1023.4 1023.4 0.0
25/05:37am 10.2 3.4 5.0 70 2.4 ENE 30 50 16 27 1023.3 1023.3 0.0
25/05:30am 10.3 4.3 5.1 70 2.4 ENE 26 43 14 23 1023.3 1023.3 0.0
25/05:21am 10.2 3.7 4.8 69 2.4 ENE 28 46 15 25 1023.2 1023.2 0.0
25/05:00am 10.6 3.7 4.7 67 2.6 ENE 30 44 16 24 1023.1 1023.1 0.0
25/04:30am 10.8 4.3 4.9 67 2.7 ENE 28 43 15 23 1022.9 1022.9 0.0
25/04:00am 10.7 4.2 4.8 67 2.7 ENE 28 46 15 25 1022.9 1022.9 0.0
25/03:57am 10.7 4.3 5.0 68 2.6 ENE 28 46 15 25 1022.9 1022.9 0.0
25/03:30am 10.9 3.5 5.0 67 2.7 ENE 33 44 18 24 1023.1 1023.1 0.0
25/03:00am 10.8 3.6 4.9 67 2.7 ENE 32 43 17 23 1023.3 1023.3 0.0
25/02:30am 10.6 5.3 4.9 68 2.6 ENE 22 33 12 18 1023.5 1023.5 0.0
25/02:00am 10.8 4.7 4.9 67 2.7 E 26 37 14 20 1023.8 1023.8 0.0
25/01:30am 10.8 5.1 5.1 68 2.6 E 24 32 13 17 1023.9 1023.9 0.0
25/01:00am 10.8 5.1 5.1 68 2.6 E 24 35 13 19 1024.0 1024.0 0.0
25/12:30am 11.1 5.4 5.0 66 2.8 E 24 32 13 17 1024.0 1024.0 0.0
25/12:00am 11.5 5.8 4.7 63 3.1 E 24 35 13 19 1024.1 1024.1 0.0
 
Date/Time
WST
Temp
°C
App
Temp
°C
Dew
Point
°C
Rel
Hum
%
Delta-T
°C
Wind Press
QNH
hPa
Press
MSL
hPa
Rain since
9am
mm
Dir  Spd
km/h
Gust
km/h
Spd
kts
Gust
kts
24/11:30pm 11.6 6.8 4.8 63 3.1 ESE 19 28 10 15 1024.4 1024.4 0.0
24/11:00pm 12.0 7.2 4.7 61 3.3 ESE 19 28 10 15 1024.5 1024.5 0.0
24/10:30pm 12.6 7.5 4.1 56 3.8 E 20 32 11 17 1024.7 1024.7 0.0
24/10:00pm 12.4 7.6 4.4 58 3.6 E 19 24 10 13 1024.9 1024.9 0.0
24/09:30pm 12.5 7.6 4.0 56 3.8 E 19 24 10 13 1025.0 1025.0 0.0
24/09:00pm 12.6 8.1 4.1 56 3.8 E 17 24 9 13 1024.8 1024.8 0.0
24/08:30pm 13.1 7.5 3.7 53 4.2 E 22 30 12 16 1024.9 1024.9 0.0
24/08:00pm 13.3 7.3 3.4 51 4.4 E 24 32 13 17 1024.7 1024.7 0.0
24/07:30pm 13.4 7.8 3.5 51 4.5 E 22 32 12 17 1024.9 1024.9 0.0
24/07:00pm 13.6 8.3 3.1 49 4.7 E 20 28 11 15 1024.7 1024.7 0.0
24/06:30pm 13.7 9.0 3.2 49 4.7 E 17 24 9 13 1024.4 1024.4 0.0
24/06:00pm 13.7 9.0 3.2 49 4.7 E 17 22 9 12 1024.1 1024.1 0.0
24/05:30pm 13.9 10.8 3.7 50 4.6 SE 9 11 5 6 1023.8 1023.8 0.0
24/05:00pm 13.9 9.8 4.2 52 4.4 SSE 15 19 8 10 1023.5 1023.5 0.0
24/04:30pm 14.2 10.3 3.4 48 4.9 SSE 13 17 7 9 1023.5 1023.5 0.0
24/04:00pm 14.3 9.9 2.5 45 5.2 SSE 15 17 8 9 1023.6 1023.6 0.0
24/03:30pm 14.2 9.8 2.5 45 5.2 S 15 20 8 11 1023.5 1023.5 0.0
24/03:00pm 14.4 9.7 2.9 46 5.1 S 17 20 9 11 1023.6 1023.6 0.0
24/02:30pm 14.2 9.1 2.8 46 5.1 SSE 19 24 10 13 1023.6 1023.6 0.0
24/02:00pm 14.6 9.7 2.2 43 5.5 ENE 17 26 9 14 1023.8 1023.8 0.0
24/01:30pm 14.1 9.5 1.7 43 5.4 ENE 15 20 8 11 1024.3 1024.3 0.0
24/01:00pm 14.6 10.4 1.8 42 5.6 ENE 13 24 7 13 1024.6 1024.6 0.0
24/12:30pm 13.8 8.7 0.8 41 5.5 E 17 24 9 13 1025.1 1025.1 0.0
24/12:00pm 13.4 7.8 1.4 44 5.1 E 20 28 11 15 1025.4 1025.4 0.0
24/11:30am 13.0 7.0 1.0 44 5.1 ENE 22 32 12 17 1025.8 1025.8 0.0
24/11:00am 12.9 6.9 1.3 45 4.9 ENE 22 33 12 18 1025.8 1025.8 0.0
24/10:30am 12.2 5.6 2.1 50 4.4 ENE 26 35 14 19 1026.1 1026.1 0.0
24/10:00am 11.9 5.1 2.9 54 3.9 ENE 28 37 15 20 1026.2 1026.2 0.0
24/09:30am 11.3 5.2 2.9 56 3.7 E 24 33 13 18 1026.3 1026.3 0.0
24/09:00am 10.5 3.6 2.8 59 3.3 ENE 28 37 15 20 1026.2 1026.2 0.0
24/08:30am 10.5 4.4 2.6 58 3.4 ENE 24 33 13 18 1026.1 1026.1 0.0
24/08:00am 10.0 3.5 2.8 61 3.1 E 26 35 14 19 1025.6 1025.6 0.0
24/07:30am 9.6 3.5 2.7 62 2.9 E 24 35 13 19 1025.3 1025.3 0.0
24/07:00am 9.1 3.8 2.9 65 2.6 E 20 30 11 16 1025.2 1025.2 0.0
24/06:30am 9.0 3.7 2.8 65 2.6 E 20 32 11 17 1025.1 1025.1 0.0
24/06:00am 9.2 3.8 2.5 63 2.8 E 20 32 11 17 1024.8 1024.8 0.0
24/05:30am 9.5 3.4 2.6 62 2.9 ENE 24 35 13 19 1024.7 1024.7 0.0
24/05:00am 9.4 4.1 2.9 64 2.8 E 20 30 11 16 1024.4 1024.4 0.0
24/04:30am 9.8 4.1 2.6 61 3.1 E 22 30 12 16 1024.4 1024.4 0.0
24/04:00am 9.9 3.8 2.5 60 3.1 ENE 24 35 13 19 1024.5 1024.5 0.0
24/03:30am 10.0 3.5 2.6 60 3.2 ENE 26 37 14 20 1024.5 1024.5 0.0
24/03:00am 10.1 4.5 3.4 63 2.9 E 22 30 12 16 1024.6 1024.6 0.0
24/02:30am 10.3 4.6 3.1 61 3.1 E 22 32 12 17 1024.7 1024.7 0.0
24/02:00am 10.4 4.8 3.2 61 3.1 E 22 30 12 16 1024.7 1024.7 0.0
24/01:30am 10.5 4.5 3.1 60 3.2 E 24 33 13 18 1024.8 1024.8 0.0
24/01:00am 10.7 4.9 2.3 56 3.6 E 22 28 12 15 1024.8 1024.8 0.0
24/12:30am 11.0 5.2 2.3 55 3.7 E 22 28 12 15 1024.6 1024.6 0.0
24/12:00am 11.4 5.3 2.7 55 3.8 E 24 32 13 17 1024.5 1024.5 0.0
 
Date/Time
WST
Temp
°C
App
Temp
°C
Dew
Point
°C
Rel
Hum
%
Delta-T
°C
Wind Press
QNH
hPa
Press
MSL
hPa
Rain since
9am
mm
Dir  Spd
km/h
Gust
km/h
Spd
kts
Gust
kts
23/11:30pm 11.6 6.3 3.1 56 3.7 E 20 32 11 17 1024.4 1024.4 0.0
23/11:00pm 11.7 6.8 4.0 59 3.4 E 19 26 10 14 1024.6 1024.6 0.0
23/10:30pm 11.7 6.8 4.0 59 3.5 E 19 24 10 13 1024.5 1024.5 0.0
23/10:00pm 11.9 7.2 3.2 55 3.8 E 17 20 9 11 1024.5 1024.5 0.0
23/09:30pm 12.1 7.7 2.6 52 4.1 E 15 20 8 11 1024.5 1024.5 0.0
23/09:00pm 12.4 7.4 1.4 47 4.7 E 17 20 9 11 1024.5 1024.5 0.0
23/08:30pm 12.6 7.6 1.6 47 4.7 E 17 22 9 12 1024.4 1024.4 0.0
23/08:00pm 12.9 7.5 1.3 45 4.9 E 19 24 10 13 1024.2 1024.2 0.0
23/07:30pm 13.5 8.6 1.8 45 5.1 E 17 24 9 13 1023.8 1023.8 0.0
23/07:00pm 13.9 8.9 3.4 49 4.7 SE 19 30 10 16 1023.4 1023.4 0.0
23/06:30pm 13.8 9.1 3.0 48 4.8 SE 17 24 9 13 1023.2 1023.2 0.0
23/06:00pm 14.0 8.7 2.9 47 4.9 SSE 20 26 11 14 1022.9 1022.9 0.0
23/05:30pm 14.0 8.6 2.3 45 5.2 SSE 20 28 11 15 1022.6 1022.6 0.0
23/05:00pm 14.0 9.1 4.9 54 4.2 S 20 28 11 15 1022.4 1022.4 0.0
23/04:30pm 14.0 8.2 4.6 53 4.4 S 24 30 13 16 1022.3 1022.3 0.0
23/04:00pm 14.2 9.2 4.5 52 4.5 SSW 20 24 11 13 1022.4 1022.4 0.0
23/03:30pm 14.0 8.9 4.3 52 4.5 S 20 26 11 14 1022.2 1022.2 0.0
23/03:00pm 14.1 9.2 4.1 51 4.6 S 19 26 10 14 1022.5 1022.5 0.0
23/02:30pm 14.0 9.4 3.5 49 4.7 S 17 22 9 12 1022.4 1022.4 0.0
23/02:00pm 14.6 10.3 5.1 53 4.4 S 17 22 9 12 1022.5 1022.5 0.0
23/01:30pm 14.0 8.8 3.8 50 4.6 SSE 20 24 11 13 1022.5 1022.5 0.0
23/01:00pm 13.6 8.5 3.1 49 4.7 SSE 19 28 10 15 1023.0 1023.0 0.0
23/12:30pm 13.5 9.2 3.3 50 4.6 SSE 15 22 8 12 1023.5 1023.5 0.0
23/12:00pm 13.6 9.0 3.7 51 4.5 SE 17 20 9 11 1023.8 1023.8 0.0
23/11:30am 13.0 7.9 4.2 55 4.0 SE 20 28 11 15 1024.1 1024.1 0.0
23/11:00am 12.8 7.8 3.5 53 4.1 SE 19 28 10 15 1024.3 1024.3 0.0
23/10:30am 12.4 7.7 3.4 54 4.0 ESE 17 24 9 13 1024.6 1024.6 0.0
23/10:00am 12.2 7.6 3.9 57 3.7 ESE 17 24 9 13 1025.0 1025.0 0.0
23/09:30am 12.4 8.7 4.4 58 3.6 ESE 13 20 7 11 1025.2 1025.2 0.0
23/09:00am 12.1 8.0 4.1 58 3.6 ESE 15 22 8 12 1025.2 1025.2 0.0
23/08:30am 11.6 7.3 3.4 57 3.6 ESE 15 20 8 11 1025.0 1025.0 0.0
23/08:00am 11.0 6.7 3.1 58 3.4 E 15 20 8 11 1024.6 1024.6 0.0
23/07:30am 10.0 5.8 4.0 66 2.6 E 15 19 8 10 1024.4 1024.4 0.0
23/07:00am 9.4 5.5 3.6 67 2.5 E 13 17 7 9 1024.4 1024.4 0.0
23/06:30am 9.5 5.2 3.3 65 2.7 E 15 17 8 9 1024.2 1024.2 0.0
23/06:00am 9.6 5.7 3.4 65 2.7 E 13 17 7 9 1024.1 1024.1 0.0
23/05:30am 9.6 5.7 3.4 65 2.7 E 13 17 7 9 1023.8 1023.8 0.0
23/05:00am 9.7 5.8 3.2 64 2.8 E 13 17 7 9 1023.7 1023.7 0.0
23/04:30am 9.9 6.0 3.2 63 2.9 E 13 17 7 9 1023.5 1023.5 0.0
23/04:00am 10.0 6.1 3.3 63 2.9 E 13 17 7 9 1023.3 1023.3 0.0
23/03:30am 10.3 6.4 3.3 62 3.1 E 13 17 7 9 1023.4 1023.4 0.0
23/03:00am 10.5 6.7 4.0 64 2.9 ESE 13 17 7 9 1023.4 1023.4 0.0
23/02:30am 10.7 6.6 4.6 66 2.7 ESE 15 19 8 10 1023.5 1023.5 0.0
23/02:00am 10.9 7.3 5.0 67 2.7 ESE 13 17 7 9 1023.5 1023.5 0.0
23/01:30am 11.7 6.7 4.7 62 3.2 SE 20 26 11 14 1023.7 1023.7 0.0
23/01:00am 11.8 6.8 4.5 61 3.3 SE 20 28 11 15 1023.6 1023.6 0.0
23/12:30am 12.2 6.7 4.2 58 3.6 SE 22 28 12 15 1023.6 1023.6 0.0
23/12:00am 12.2 6.8 4.4 59 3.5 SE 22 30 12 16 1023.8 1023.8 0.0
 
Date/Time
WST
Temp
°C
App
Temp
°C
Dew
Point
°C
Rel
Hum
%
Delta-T
°C
Wind Press
QNH
hPa
Press
MSL
hPa
Rain since
9am
mm
Dir  Spd
km/h
Gust
km/h
Spd
kts
Gust
kts
22/11:30pm 12.3 6.6 4.8 60 3.4 SE 24 32 13 17 1023.9 1023.9 0.0
22/11:00pm 12.3 6.9 4.5 59 3.5 SE 22 28 12 15 1023.9 1023.9 0.0
22/10:30pm 12.7 7.1 5.4 61 3.4 SE 24 33 13 18 1024.0 1024.0 0.0
22/10:00pm 13.2 6.8 5.1 58 3.7 SSE 28 37 15 20 1023.9 1023.9 0.0
22/09:30pm 13.3 6.1 5.0 57 3.9 SSE 32 39 17 21 1023.9 1023.9 0.0
22/09:00pm 13.3 5.8 4.5 55 4.0 SSE 33 43 18 23 1023.7 1023.7 0.0
22/08:30pm 13.5 5.2 4.1 53 4.3 SSE 37 46 20 25 1023.3 1023.3 0.0
22/08:00pm 13.6 5.5 5.3 57 3.9 S 37 46 20 25 1023.0 1023.0 0.0

Latest Capital City Observations: Canberra | Sydney | Melbourne | Brisbane | Adelaide | Perth | Hobart | Darwin

Other Formats:

Comma delimited format used in spreadsheet applications
http://www.bom.gov.au/fwo/IDW60901/IDW60901.94602.axf

JavaScript Object Notation format (JSON) in row-major order
http://www.bom.gov.au/fwo/IDW60901/IDW60901.94602.json